sensor_id;sensor_type;location;lat;lon;timestamp;pressure;altitude;pressure_sealevel;temperature;humidity
29461;BME280;16428;47.836;35.106;2023-02-10T00:00:54;103431.53;;;-5.47;100.00
29461;BME280;16428;47.836;35.106;2023-02-10T00:03:23;103438.50;;;-5.37;100.00
29461;BME280;16428;47.836;35.106;2023-02-10T00:05:51;103435.88;;;-5.40;100.00
29461;BME280;16428;47.836;35.106;2023-02-10T00:08:19;103427.97;;;-5.33;100.00
29461;BME280;16428;47.836;35.106;2023-02-10T00:10:48;103424.56;;;-5.48;100.00
29461;BME280;16428;47.836;35.106;2023-02-10T00:13:17;103427.16;;;-5.47;100.00
29461;BME280;16428;47.836;35.106;2023-02-10T00:15:46;103420.88;;;-5.17;100.00
29461;BME280;16428;47.836;35.106;2023-02-10T00:18:14;103417.22;;;-4.94;100.00
29461;BME280;16428;47.836;35.106;2023-02-10T00:20:42;103419.97;;;-5.10;100.00
29461;BME280;16428;47.836;35.106;2023-02-10T00:23:10;103422.72;;;-5.31;100.00
29461;BME280;16428;47.836;35.106;2023-02-10T00:25:39;103411.41;;;-5.36;100.00
29461;BME280;16428;47.836;35.106;2023-02-10T00:28:07;103414.03;;;-5.36;100.00
29461;BME280;16428;47.836;35.106;2023-02-10T00:30:36;103414.88;;;-5.34;100.00
29461;BME280;16428;47.836;35.106;2023-02-10T00:33:04;103421.84;;;-5.30;100.00
29461;BME280;16428;47.836;35.106;2023-02-10T00:35:36;103410.34;;;-5.08;100.00
29461;BME280;16428;47.836;35.106;2023-02-10T00:38:04;103419.97;;;-5.10;100.00
29461;BME280;16428;47.836;35.106;2023-02-10T00:40:32;103413.06;;;-5.20;100.00
29461;BME280;16428;47.836;35.106;2023-02-10T00:43:00;103418.19;;;-5.06;100.00
29461;BME280;16428;47.836;35.106;2023-02-10T00:45:28;103413.97;;;-5.27;100.00
29461;BME280;16428;47.836;35.106;2023-02-10T00:47:56;103416.56;;;-5.21;100.00
29461;BME280;16428;47.836;35.106;2023-02-10T00:50:24;103418.31;;;-5.23;100.00
29461;BME280;16428;47.836;35.106;2023-02-10T00:52:52;103424.53;;;-5.39;100.00
29461;BME280;16428;47.836;35.106;2023-02-10T00:55:20;103415.88;;;-5.53;100.00
29461;BME280;16428;47.836;35.106;2023-02-10T00:57:49;103410.66;;;-5.56;100.00
29461;BME280;16428;47.836;35.106;2023-02-10T01:00:17;103413.25;;;-5.52;100.00
29461;BME280;16428;47.836;35.106;2023-02-10T01:02:45;103412.34;;;-5.49;100.00
29461;BME280;16428;47.836;35.106;2023-02-10T01:05:13;103411.53;;;-5.62;100.00
29461;BME280;16428;47.836;35.106;2023-02-10T01:07:42;103401.06;;;-5.63;100.00
29461;BME280;16428;47.836;35.106;2023-02-10T01:10:10;103398.44;;;-5.62;100.00
29461;BME280;16428;47.836;35.106;2023-02-10T01:12:38;103401.94;;;-5.58;100.00
29461;BME280;16428;47.836;35.106;2023-02-10T01:15:07;103402.00;;;-5.77;100.00
29461;BME280;16428;47.836;35.106;2023-02-10T01:17:36;103408.97;;;-5.67;100.00
29461;BME280;16428;47.836;35.106;2023-02-10T01:20:05;103407.25;;;-5.74;100.00
29461;BME280;16428;47.836;35.106;2023-02-10T01:22:34;103400.09;;;-5.44;100.00
29461;BME280;16428;47.836;35.106;2023-02-10T01:25:03;103397.63;;;-5.65;100.00
29461;BME280;16428;47.836;35.106;2023-02-10T01:27:31;103399.38;;;-5.77;100.00
29461;BME280;16428;47.836;35.106;2023-02-10T01:29:59;103395.06;;;-5.81;100.00
29461;BME280;16428;47.836;35.106;2023-02-10T01:32:27;103399.44;;;-5.81;100.00
29461;BME280;16428;47.836;35.106;2023-02-10T01:34:55;103396.81;;;-5.81;100.00
29461;BME280;16428;47.836;35.106;2023-02-10T01:37:25;103407.28;;;-5.83;100.00
29461;BME280;16428;47.836;35.106;2023-02-10T01:39:53;103402.94;;;-5.84;100.00
29461;BME280;16428;47.836;35.106;2023-02-10T01:42:21;103399.44;;;-5.83;100.00
29461;BME280;16428;47.836;35.106;2023-02-10T01:47:17;103397.66;;;-5.76;100.00
29461;BME280;16428;47.836;35.106;2023-02-10T01:49:48;103399.44;;;-5.81;100.00
29461;BME280;16428;47.836;35.106;2023-02-10T01:52:21;103401.13;;;-5.79;100.00
29461;BME280;16428;47.836;35.106;2023-02-10T01:55:01;103402.03;;;-5.80;100.00
29461;BME280;16428;47.836;35.106;2023-02-10T01:57:31;103402.06;;;-5.86;100.00
29461;BME280;16428;47.836;35.106;2023-02-10T02:00:02;103402.94;;;-5.81;100.00
29461;BME280;16428;47.836;35.106;2023-02-10T02:02:33;103399.41;;;-5.80;100.00
29461;BME280;16428;47.836;35.106;2023-02-10T02:05:06;103401.19;;;-5.82;100.00
29461;BME280;16428;47.836;35.106;2023-02-10T02:07:36;103402.97;;;-5.88;100.00
29461;BME280;16428;47.836;35.106;2023-02-10T02:10:06;103399.44;;;-5.84;100.00
29461;BME280;16428;47.836;35.106;2023-02-10T02:29:49;103382.09;;;-5.97;100.00
29461;BME280;16428;47.836;35.106;2023-02-10T02:32:26;103382.97;;;-6.03;100.00
29461;BME280;16428;47.836;35.106;2023-02-10T02:35:14;103376.00;;;-6.03;100.00
29461;BME280;16428;47.836;35.106;2023-02-10T02:37:45;103375.06;;;-5.95;100.00
29461;BME280;16428;47.836;35.106;2023-02-10T02:40:16;103369.00;;;-6.02;100.00
29461;BME280;16428;47.836;35.106;2023-02-10T02:49:43;103367.28;;;-6.06;100.00
29461;BME280;16428;47.836;35.106;2023-02-10T03:01:01;103376.84;;;-6.02;100.00
29461;BME280;16428;47.836;35.106;2023-02-10T03:07:07;103377.75;;;-6.06;100.00
29461;BME280;16428;47.836;35.106;2023-02-10T03:09:37;103381.13;;;-5.86;100.00
29461;BME280;16428;47.836;35.106;2023-02-10T03:12:06;103381.03;;;-5.68;100.00
29461;BME280;16428;47.836;35.106;2023-02-10T03:14:35;103383.66;;;-5.66;100.00
29461;BME280;16428;47.836;35.106;2023-02-10T03:17:03;103383.66;;;-5.66;100.00
29461;BME280;16428;47.836;35.106;2023-02-10T03:19:32;103384.47;;;-5.59;100.00
29461;BME280;16428;47.836;35.106;2023-02-10T03:22:01;103379.38;;;-5.81;100.00
29461;BME280;16428;47.836;35.106;2023-02-10T03:24:29;103382.78;;;-5.73;100.00
29461;BME280;16428;47.836;35.106;2023-02-10T03:26:57;103378.44;;;-5.72;100.00
29461;BME280;16428;47.836;35.106;2023-02-10T03:29:26;103379.38;;;-5.87;100.00
29461;BME280;16428;47.836;35.106;2023-02-10T03:31:55;103371.63;;;-6.07;100.00
29461;BME280;16428;47.836;35.106;2023-02-10T03:34:31;103374.31;;;-6.14;100.00
29461;BME280;16428;47.836;35.106;2023-02-10T03:37:00;103370.81;;;-6.13;100.00
29461;BME280;16428;47.836;35.106;2023-02-10T03:39:29;103372.56;;;-6.15;100.00
29461;BME280;16428;47.836;35.106;2023-02-10T03:41:57;103369.06;;;-6.16;100.00
29461;BME280;16428;47.836;35.106;2023-02-10T03:44:25;103363.88;;;-6.26;100.00
29461;BME280;16428;47.836;35.106;2023-02-10T03:46:53;103381.31;;;-6.28;100.00
29461;BME280;16428;47.836;35.106;2023-02-10T03:49:21;103376.97;;;-6.32;100.00
29461;BME280;16428;47.836;35.106;2023-02-10T03:51:48;103370.00;;;-6.35;100.00
29461;BME280;16428;47.836;35.106;2023-02-10T03:54:17;103382.16;;;-6.23;100.00
29461;BME280;16428;47.836;35.106;2023-02-10T03:56:45;103379.59;;;-6.39;100.00
29461;BME280;16428;47.836;35.106;2023-02-10T03:59:13;103383.06;;;-6.36;100.00
29461;BME280;16428;47.836;35.106;2023-02-10T04:01:41;103376.09;;;-6.31;100.00
29461;BME280;16428;47.836;35.106;2023-02-10T04:04:08;103372.59;;;-6.32;100.00
29461;BME280;16428;47.836;35.106;2023-02-10T04:06:39;103369.94;;;-6.23;100.00
29461;BME280;16428;47.836;35.106;2023-02-10T04:09:08;103375.22;;;-6.29;100.00
29461;BME280;16428;47.836;35.106;2023-02-10T04:11:36;103376.09;;;-6.31;100.00
29461;BME280;16428;47.836;35.106;2023-02-10T04:14:04;103376.09;;;-6.38;100.00
29461;BME280;16428;47.836;35.106;2023-02-10T04:16:32;103374.38;;;-6.45;100.00
29461;BME280;16428;47.836;35.106;2023-02-10T04:19:03;103376.13;;;-6.44;100.00
29461;BME280;16428;47.836;35.106;2023-02-10T04:21:33;103377.00;;;-6.46;100.00
29461;BME280;16428;47.836;35.106;2023-02-10T04:24:02;103379.63;;;-6.42;100.00
29461;BME280;16428;47.836;35.106;2023-02-10T04:26:33;103390.03;;;-6.40;100.00
29461;BME280;16428;47.836;35.106;2023-02-10T04:29:00;103383.06;;;-6.40;100.00
29461;BME280;16428;47.836;35.106;2023-02-10T04:31:29;103391.78;;;-6.28;100.00
29461;BME280;16428;47.836;35.106;2023-02-10T04:33:57;103390.03;;;-6.32;100.00
29461;BME280;16428;47.836;35.106;2023-02-10T04:36:25;103393.56;;;-6.43;100.00
29461;BME280;16428;47.836;35.106;2023-02-10T04:38:53;103391.78;;;-6.28;100.00
29461;BME280;16428;47.836;35.106;2023-02-10T04:41:23;103390.91;;;-6.38;100.00
29461;BME280;16428;47.836;35.106;2023-02-10T04:43:51;103385.72;;;-6.44;100.00
29461;BME280;16428;47.836;35.106;2023-02-10T04:46:19;103383.09;;;-6.43;100.00
29461;BME280;16428;47.836;35.106;2023-02-10T04:48:47;103389.09;;;-6.10;100.00
29461;BME280;16428;47.836;35.106;2023-02-10T04:51:15;103394.25;;;-5.95;100.00
29461;BME280;16428;47.836;35.106;2023-02-10T04:53:47;103391.66;;;-5.95;100.00
29461;BME280;16428;47.836;35.106;2023-02-10T04:56:15;103389.16;;;-6.30;100.00
29461;BME280;16428;47.836;35.106;2023-02-10T04:58:43;103383.97;;;-6.42;100.00
29461;BME280;16428;47.836;35.106;2023-02-10T05:01:11;103388.34;;;-6.49;100.00
29461;BME280;16428;47.836;35.106;2023-02-10T05:03:39;103387.47;;;-6.45;100.00
29461;BME280;16428;47.836;35.106;2023-02-10T05:06:14;103395.28;;;-6.32;100.00
29461;BME280;16428;47.836;35.106;2023-02-10T05:08:43;103390.03;;;-6.39;100.00
29461;BME280;16428;47.836;35.106;2023-02-10T05:11:14;103391.81;;;-6.44;100.00
29461;BME280;16428;47.836;35.106;2023-02-10T05:13:43;103391.81;;;-6.44;100.00
29461;BME280;16428;47.836;35.106;2023-02-10T05:16:14;103396.97;;;-6.25;100.00
29461;BME280;16428;47.836;35.106;2023-02-10T05:18:42;103404.00;;;-6.33;100.00
29461;BME280;16428;47.836;35.106;2023-02-10T05:21:12;103401.41;;;-6.46;100.00
29461;BME280;16428;47.836;35.106;2023-02-10T05:23:41;103401.38;;;-6.30;100.00
29461;BME280;16428;47.836;35.106;2023-02-10T05:26:09;103397.06;;;-6.44;100.00
29461;BME280;16428;47.836;35.106;2023-02-10T05:28:37;103404.00;;;-6.40;100.00
29461;BME280;16428;47.836;35.106;2023-02-10T05:31:05;103397.03;;;-6.34;100.00
29461;BME280;16428;47.836;35.106;2023-02-10T05:33:34;103401.38;;;-6.32;100.00
29461;BME280;16428;47.836;35.106;2023-02-10T05:36:06;103411.75;;;-6.11;100.00
29461;BME280;16428;47.836;35.106;2023-02-10T05:38:34;103410.88;;;-6.02;100.00
29461;BME280;16428;47.836;35.106;2023-02-10T05:41:02;103409.19;;;-6.18;100.00
29461;BME280;16428;47.836;35.106;2023-02-10T05:43:31;103410.88;;;-6.02;100.00
29461;BME280;16428;47.836;35.106;2023-02-10T05:45:59;103406.44;;;-5.88;100.00
29461;BME280;16428;47.836;35.106;2023-02-10T05:48:28;103406.38;;;-5.77;100.00
29461;BME280;16428;47.836;35.106;2023-02-10T05:50:55;103409.00;;;-5.79;100.00
29461;BME280;16428;47.836;35.106;2023-02-10T05:53:24;103406.31;;;-5.62;100.00
29461;BME280;16428;47.836;35.106;2023-02-10T05:55:52;103403.66;;;-5.51;100.00
29461;BME280;16428;47.836;35.106;2023-02-10T05:58:19;103406.22;;;-5.47;100.00
29461;BME280;16428;47.836;35.106;2023-02-10T06:00:47;103413.19;;;-5.41;100.00
29461;BME280;16428;47.836;35.106;2023-02-10T06:03:15;103413.97;;;-5.30;100.00
29461;BME280;16428;47.836;35.106;2023-02-10T06:05:43;103404.34;;;-5.26;100.00
29461;BME280;16428;47.836;35.106;2023-02-10T06:08:12;103406.91;;;-5.19;100.00
29461;BME280;16428;47.836;35.106;2023-02-10T06:10:39;103407.00;;;-5.33;100.00
29461;BME280;16428;47.836;35.106;2023-02-10T06:13:08;103409.63;;;-5.34;100.00
29461;BME280;16428;47.836;35.106;2023-02-10T06:15:37;103418.19;;;-5.06;100.00
29461;BME280;16428;47.836;35.106;2023-02-10T06:18:08;103420.81;;;-5.05;100.00
29461;BME280;16428;47.836;35.106;2023-02-10T06:20:40;103411.00;;;-4.80;100.00
29461;BME280;16428;47.836;35.106;2023-02-10T06:23:10;103415.16;;;-4.57;100.00
29461;BME280;16428;47.836;35.106;2023-02-10T06:25:40;103421.25;;;-4.57;100.00
29461;BME280;16428;47.836;35.106;2023-02-10T06:28:08;103422.09;;;-4.50;100.00
29461;BME280;16428;47.836;35.106;2023-02-10T06:30:41;103418.47;;;-4.39;100.00
29461;BME280;16428;47.836;35.106;2023-02-10T06:33:10;103418.41;;;-4.33;100.00
29461;BME280;16428;47.836;35.106;2023-02-10T06:35:38;103414.13;;;-4.41;100.00
29461;BME280;16428;47.836;35.106;2023-02-10T06:38:06;103423.72;;;-4.39;100.00
29461;BME280;16428;47.836;35.106;2023-02-10T06:40:35;103424.28;;;-4.11;100.00
29461;BME280;16428;47.836;35.106;2023-02-10T06:43:03;103413.72;;;-4.02;100.00
29461;BME280;16428;47.836;35.106;2023-02-10T06:45:41;103405.63;;;-3.85;100.00
29461;BME280;16428;47.836;35.106;2023-02-10T06:48:22;103403.91;;;-3.86;100.00
29461;BME280;16428;47.836;35.106;2023-02-10T06:50:50;103422.38;;;-3.95;100.00
29461;BME280;16428;47.836;35.106;2023-02-10T06:53:19;103414.09;;;-3.65;100.00
29461;BME280;16428;47.836;35.106;2023-02-10T06:55:47;103413.03;;;-3.50;100.00
29461;BME280;16428;47.836;35.106;2023-02-10T06:58:16;103412.25;;;-3.55;100.00
29461;BME280;16428;47.836;35.106;2023-02-10T07:00:44;103409.47;;;-3.44;100.00
29461;BME280;16428;47.836;35.106;2023-02-10T07:03:13;103400.97;;;-3.05;100.00
29461;BME280;16428;47.836;35.106;2023-02-10T07:05:42;103410.44;;;-2.92;100.00
29461;BME280;16428;47.836;35.106;2023-02-10T07:08:18;103417.59;;;-3.03;100.00
29461;BME280;16428;47.836;35.106;2023-02-10T07:10:54;103410.66;;;-3.07;100.00
29461;BME280;16428;47.836;35.106;2023-02-10T07:13:23;103405.19;;;-2.44;100.00
29461;BME280;16428;47.836;35.106;2023-02-10T07:15:51;103405.59;;;-2.65;100.00
29461;BME280;16428;47.836;35.106;2023-02-10T07:18:20;103398.00;;;-2.33;100.00
29461;BME280;16428;47.836;35.106;2023-02-10T07:20:47;103393.31;;;-2.19;100.00
29461;BME280;16428;47.836;35.106;2023-02-10T07:23:16;103388.50;;;-1.98;99.28
29461;BME280;16428;47.836;35.106;2023-02-10T07:26:03;103385.75;;;-1.92;99.46
29461;BME280;16428;47.836;35.106;2023-02-10T07:28:34;103386.78;;;-1.58;98.86
29461;BME280;16428;47.836;35.106;2023-02-10T07:31:02;103394.63;;;-1.96;98.26
29461;BME280;16428;47.836;35.106;2023-02-10T07:33:30;103390.44;;;-1.65;98.45
29461;BME280;16428;47.836;35.106;2023-02-10T07:36:00;103393.28;;;-1.74;99.22
29461;BME280;16428;47.836;35.106;2023-02-10T07:38:29;103387.44;;;-1.48;97.37
29461;BME280;16428;47.836;35.106;2023-02-10T07:40:57;103393.97;;;-1.26;96.87
29461;BME280;16428;47.836;35.106;2023-02-10T07:43:26;103391.00;;;-1.12;95.39
29461;BME280;16428;47.836;35.106;2023-02-10T07:45:54;103382.94;;;-1.43;95.80
29461;BME280;16428;47.836;35.106;2023-02-10T07:48:21;103385.13;;;-0.88;95.49
29461;BME280;16428;47.836;35.106;2023-02-10T07:50:50;103385.09;;;-0.52;93.03
29461;BME280;16428;47.836;35.106;2023-02-10T07:53:22;103379.47;;;-0.40;92.56
29461;BME280;16428;47.836;35.106;2023-02-10T07:55:50;103380.28;;;-0.37;92.53
29461;BME280;16428;47.836;35.106;2023-02-10T07:58:19;103386.41;;;-0.36;91.50
29461;BME280;16428;47.836;35.106;2023-02-10T08:00:47;103386.69;;;-0.14;91.14
29461;BME280;16428;47.836;35.106;2023-02-10T08:03:16;103378.00;;;-0.50;91.77
29461;BME280;16428;47.836;35.106;2023-02-10T08:05:44;103380.28;;;-0.06;90.05
29461;BME280;16428;47.836;35.106;2023-02-10T08:08:15;103378.16;;;0.07;89.28
29461;BME280;16428;47.836;35.106;2023-02-10T08:10:45;103393.13;;;0.38;85.40
29461;BME280;16428;47.836;35.106;2023-02-10T08:13:14;103386.03;;;0.38;84.48
29461;BME280;16428;47.836;35.106;2023-02-10T08:15:42;103379.81;;;0.68;83.14
29461;BME280;16428;47.836;35.106;2023-02-10T08:18:11;103378.75;;;0.74;81.23
29461;BME280;16428;47.836;35.106;2023-02-10T08:20:39;103376.69;;;1.10;79.96
29461;BME280;16428;47.836;35.106;2023-02-10T08:23:15;103361.53;;;1.15;79.45
29461;BME280;16428;47.836;35.106;2023-02-10T08:25:44;103374.34;;;1.27;77.34
29461;BME280;16428;47.836;35.106;2023-02-10T08:28:13;103363.56;;;1.33;78.57
29461;BME280;16428;47.836;35.106;2023-02-10T08:30:41;103368.22;;;1.25;75.24
29461;BME280;16428;47.836;35.106;2023-02-10T08:36:45;103371.28;;;1.64;72.17
29461;BME280;16428;47.836;35.106;2023-02-10T08:39:17;103370.91;;;1.50;75.36
29461;BME280;16428;47.836;35.106;2023-02-10T08:41:47;103369.94;;;1.53;75.28
29461;BME280;16428;47.836;35.106;2023-02-10T08:44:15;103369.81;;;1.56;74.96
29461;BME280;16428;47.836;35.106;2023-02-10T08:46:43;103363.41;;;1.86;72.51
29461;BME280;16428;47.836;35.106;2023-02-10T08:49:12;103365.53;;;1.76;74.66
29461;BME280;16428;47.836;35.106;2023-02-10T08:51:40;103368.75;;;2.09;73.66
29461;BME280;16428;47.836;35.106;2023-02-10T08:54:08;103363.66;;;1.80;72.46
29461;BME280;16428;47.836;35.106;2023-02-10T08:56:36;103356.72;;;0.74;73.26
29461;BME280;16428;47.836;35.106;2023-02-10T08:59:04;103354.81;;;0.77;75.74
29461;BME280;16428;47.836;35.106;2023-02-10T09:01:33;103342.69;;;0.72;78.92
29461;BME280;16428;47.836;35.106;2023-02-10T09:04:02;103340.31;;;0.62;78.21
29461;BME280;16428;47.836;35.106;2023-02-10T09:06:35;103343.00;;;1.15;76.82
29461;BME280;16428;47.836;35.106;2023-02-10T09:09:07;103342.00;;;0.65;79.11
29461;BME280;16428;47.836;35.106;2023-02-10T09:11:36;103341.41;;;0.83;79.06
29461;BME280;16428;47.836;35.106;2023-02-10T09:14:05;103327.00;;;0.92;81.45
29461;BME280;16428;47.836;35.106;2023-02-10T09:16:34;103333.91;;;1.22;79.05
29461;BME280;16428;47.836;35.106;2023-02-10T09:19:08;103327.00;;;1.18;78.87
29461;BME280;16428;47.836;35.106;2023-02-10T09:21:36;103323.56;;;0.90;76.69
29461;BME280;16428;47.836;35.106;2023-02-10T09:24:14;103326.00;;;0.96;75.54
29461;BME280;16428;47.836;35.106;2023-02-10T09:26:43;103326.59;;;0.78;73.15
29461;BME280;16428;47.836;35.106;2023-02-10T09:29:13;103326.59;;;0.78;73.27
29461;BME280;16428;47.836;35.106;2023-02-10T09:31:42;103320.59;;;0.73;72.62
29461;BME280;16428;47.836;35.106;2023-02-10T09:34:11;103324.66;;;0.83;70.90
29461;BME280;16428;47.836;35.106;2023-02-10T09:36:39;103314.97;;;1.34;69.71
29461;BME280;16428;47.836;35.106;2023-02-10T09:39:08;103312.69;;;1.72;68.63
29461;BME280;16428;47.836;35.106;2023-02-10T09:41:44;103312.31;;;1.34;68.23
29461;BME280;16428;47.836;35.106;2023-02-10T09:44:24;103320.06;;;1.14;68.05
29461;BME280;16428;47.836;35.106;2023-02-10T09:46:59;103312.22;;;1.11;68.21
29461;BME280;16428;47.836;35.106;2023-02-10T09:49:53;103311.78;;;0.46;70.69
29461;BME280;16428;47.836;35.106;2023-02-10T09:52:34;103294.06;;;1.25;69.72
29461;BME280;16428;47.836;35.106;2023-02-10T09:55:21;103282.75;;;0.70;70.62
29461;BME280;16428;47.836;35.106;2023-02-10T09:57:57;103280.50;;;0.85;70.83
29461;BME280;16428;47.836;35.106;2023-02-10T10:00:37;103277.00;;;1.09;69.96
29461;BME280;16428;47.836;35.106;2023-02-10T10:03:14;103265.72;;;1.04;71.79
29461;BME280;16428;47.836;35.106;2023-02-10T10:08:50;103261.34;;;0.77;72.00
29461;BME280;16428;47.836;35.106;2023-02-10T10:11:54;103262.31;;;1.25;71.29
29461;BME280;16428;47.836;35.106;2023-02-10T10:28:49;103249.16;;;2.16;68.06
29461;BME280;16428;47.836;35.106;2023-02-10T14:53:40;103111.66;;;0.20;85.82
29461;BME280;16428;47.836;35.106;2023-02-10T14:56:22;103116.19;;;0.16;86.57
29461;BME280;16428;47.836;35.106;2023-02-10T14:58:51;103122.97;;;0.25;87.08
29461;BME280;16428;47.836;35.106;2023-02-10T15:01:24;103116.59;;;0.04;87.32
29461;BME280;16428;47.836;35.106;2023-02-10T15:03:54;103116.00;;;-0.04;87.27
29461;BME280;16428;47.836;35.106;2023-02-10T15:06:28;103110.94;;;-0.12;88.45
29461;BME280;16428;47.836;35.106;2023-02-10T15:11:40;103101.47;;;-0.17;89.31
29461;BME280;16428;47.836;35.106;2023-02-10T15:14:31;103112.59;;;-0.08;88.54
29461;BME280;16428;47.836;35.106;2023-02-10T15:17:06;103112.16;;;-0.22;89.43
29461;BME280;16428;47.836;35.106;2023-02-10T15:19:36;103104.06;;;-0.16;89.48
29461;BME280;16428;47.836;35.106;2023-02-10T15:28:24;103105.50;;;0.19;84.78
29461;BME280;16428;47.836;35.106;2023-02-10T15:30:53;103104.34;;;0.02;85.93
29461;BME280;16428;47.836;35.106;2023-02-10T15:33:50;103100.47;;;-0.15;87.48
29461;BME280;16428;47.836;35.106;2023-02-10T15:37:02;103105.88;;;-0.18;85.68
29461;BME280;16428;47.836;35.106;2023-02-10T15:39:37;103103.94;;;-0.13;86.27
29461;BME280;16428;47.836;35.106;2023-02-10T15:44:45;103104.25;;;-0.22;87.35
29461;BME280;16428;47.836;35.106;2023-02-10T15:47:58;103103.69;;;-0.31;88.21
29461;BME280;16428;47.836;35.106;2023-02-10T15:50:28;103100.97;;;-0.30;87.03
29461;BME280;16428;47.836;35.106;2023-02-10T15:52:58;103100.44;;;-0.41;88.01
29461;BME280;16428;47.836;35.106;2023-02-10T15:55:40;103102.47;;;-0.49;88.80
29461;BME280;16428;47.836;35.106;2023-02-10T15:58:11;103103.41;;;-0.50;88.62
29461;BME280;16428;47.836;35.106;2023-02-10T16:00:42;103100.72;;;-0.49;88.83
29461;BME280;16428;47.836;35.106;2023-02-10T16:03:12;103104.81;;;-0.68;89.48
29461;BME280;16428;47.836;35.106;2023-02-10T16:05:47;103104.84;;;-0.69;92.39
29461;BME280;16428;47.836;35.106;2023-02-10T16:08:20;103104.31;;;-0.81;93.02
29461;BME280;16428;47.836;35.106;2023-02-10T16:11:12;103117.88;;;-0.93;94.25
29461;BME280;16428;47.836;35.106;2023-02-10T16:13:41;103111.50;;;-0.86;94.02
29461;BME280;16428;47.836;35.106;2023-02-10T16:16:13;103106.69;;;-0.72;93.00
29461;BME280;16428;47.836;35.106;2023-02-10T16:18:44;103104.56;;;-0.90;93.78
29461;BME280;16428;47.836;35.106;2023-02-10T16:21:14;103106.88;;;-0.78;92.25
29461;BME280;16428;47.836;35.106;2023-02-10T16:23:46;103101.19;;;-0.64;91.51
29461;BME280;16428;47.836;35.106;2023-02-10T16:26:22;103104.78;;;-0.96;94.90
29461;BME280;16428;47.836;35.106;2023-02-10T16:28:51;103115.69;;;-1.08;95.03
29461;BME280;16428;47.836;35.106;2023-02-10T16:31:22;103116.72;;;-1.14;95.63
29461;BME280;16428;47.836;35.106;2023-02-10T16:33:51;103119.03;;;-1.03;94.81
29461;BME280;16428;47.836;35.106;2023-02-10T16:36:21;103121.38;;;-0.92;93.28
29461;BME280;16428;47.836;35.106;2023-02-10T16:38:55;103127.72;;;-0.99;94.80
29461;BME280;16428;47.836;35.106;2023-02-10T16:41:31;103124.34;;;-1.04;95.63
29461;BME280;16428;47.836;35.106;2023-02-10T16:44:01;103126.25;;;-1.08;95.43
29461;BME280;16428;47.836;35.106;2023-02-10T16:46:30;103120.13;;;-1.10;95.03
29461;BME280;16428;47.836;35.106;2023-02-10T16:48:58;103122.94;;;-1.16;94.63
29461;BME280;16428;47.836;35.106;2023-02-10T16:51:26;103117.41;;;-1.07;94.71
29461;BME280;16428;47.836;35.106;2023-02-10T16:53:58;103106.44;;;-0.92;94.12
29461;BME280;16428;47.836;35.106;2023-02-10T16:56:30;103103.16;;;-1.01;95.07
29461;BME280;16428;47.836;35.106;2023-02-10T16:58:59;103116.34;;;-1.01;94.92
29461;BME280;16428;47.836;35.106;2023-02-10T17:01:29;103116.97;;;-1.23;95.84
29461;BME280;16428;47.836;35.106;2023-02-10T17:04:00;103117.44;;;-1.39;96.70
29461;BME280;16428;47.836;35.106;2023-02-10T17:06:29;103111.34;;;-1.42;97.48
29461;BME280;16428;47.836;35.106;2023-02-10T17:09:01;103110.59;;;-1.47;98.76
29461;BME280;16428;47.836;35.106;2023-02-10T17:11:31;103102.84;;;-1.53;98.47
29461;BME280;16428;47.836;35.106;2023-02-10T17:14:01;103110.03;;;-1.58;99.22
29461;BME280;16428;47.836;35.106;2023-02-10T17:16:34;103087.38;;;-1.66;99.85
29461;BME280;16428;47.836;35.106;2023-02-10T17:19:05;103088.22;;;-1.64;99.30
29461;BME280;16428;47.836;35.106;2023-02-10T17:21:34;103085.41;;;-1.57;99.58
29461;BME280;16428;47.836;35.106;2023-02-10T17:24:05;103084.59;;;-1.60;99.84
29461;BME280;16428;47.836;35.106;2023-02-10T17:26:36;103088.97;;;-1.59;99.73
29461;BME280;16428;47.836;35.106;2023-02-10T17:29:14;103099.41;;;-1.55;99.95
29461;BME280;16428;47.836;35.106;2023-02-10T17:31:45;103090.13;;;-1.69;99.68
29461;BME280;16428;47.836;35.106;2023-02-10T17:34:15;103089.00;;;-1.61;99.58
29461;BME280;16428;47.836;35.106;2023-02-10T17:36:48;103082.16;;;-1.68;99.36
29461;BME280;16428;47.836;35.106;2023-02-10T17:39:19;103083.13;;;-1.70;100.00
29461;BME280;16428;47.836;35.106;2023-02-10T17:41:55;103084.88;;;-1.69;100.00
29461;BME280;16428;47.836;35.106;2023-02-10T17:44:24;103078.88;;;-1.44;99.13
29461;BME280;16428;47.836;35.106;2023-02-10T17:46:53;103073.56;;;-1.42;98.24
29461;BME280;16428;47.836;35.106;2023-02-10T17:49:27;103070.63;;;-1.31;97.92
29461;BME280;16428;47.836;35.106;2023-02-10T17:51:55;103068.69;;;-1.25;96.73
29461;BME280;16428;47.836;35.106;2023-02-10T17:54:26;103065.44;;;-1.34;97.51
29461;BME280;16428;47.836;35.106;2023-02-10T17:56:54;103068.09;;;-1.36;97.94
29461;BME280;16428;47.836;35.106;2023-02-10T17:59:26;103071.19;;;-1.53;98.47
29461;BME280;16428;47.836;35.106;2023-02-10T18:01:56;103073.63;;;-1.45;98.08
29461;BME280;16428;47.836;35.106;2023-02-10T18:04:27;103069.16;;;-1.42;98.13
29461;BME280;16428;47.836;35.106;2023-02-10T18:06:56;103068.97;;;-1.35;98.13
29461;BME280;16428;47.836;35.106;2023-02-10T18:09:25;103055.31;;;-1.50;98.92
29461;BME280;16428;47.836;35.106;2023-02-10T18:11:58;103056.91;;;-1.44;98.30
29461;BME280;16428;47.836;35.106;2023-02-10T18:14:30;103055.50;;;-1.56;98.96
29461;BME280;16428;47.836;35.106;2023-02-10T18:17:01;103052.72;;;-1.51;98.90
29461;BME280;16428;47.836;35.106;2023-02-10T18:19:30;103057.22;;;-1.55;98.64
29461;BME280;16428;47.836;35.106;2023-02-10T18:22:00;103053.06;;;-1.63;99.92
29461;BME280;16428;47.836;35.106;2023-02-10T18:24:29;103055.97;;;-1.74;99.73
29461;BME280;16428;47.836;35.106;2023-02-10T18:27:02;103051.66;;;-1.77;100.00